This is the latest recevied weather packets stored in our database for station/object W4TTU-1. If no packets are shown the sender has not sent any weather packets the latest 10 day(s).
| Time | Temp. | Humidity | Pressure | Rain* | Wind** | Luminosity | Snow |
|---|---|---|---|---|---|---|---|
| 1777885328 | 8.33° C | 27% | 841.1 hPa | 0 mm | - | - | - |
| 1777883528 | 8.89° C | 27% | 841.1 hPa | 0 mm | - | - | - |
| 1777882631 | 9.44° C | 27% | 841.1 hPa | 0 mm | - | - | - |
| 1777881726 | 10° C | 27% | 841.2 hPa | 0 mm | - | - | - |
| 1777878124 | 11.11° C | 27% | 841.3 hPa | 0 mm | - | - | - |
| 1777875424 | 11.67° C | 27% | 841.4 hPa | 0 mm | - | - | - |
| 1777874522 | 12.22° C | 27% | 841.2 hPa | 0 mm | - | - | - |
| 1777873623 | 12.78° C | 26% | 841.3 hPa | 0 mm | - | - | - |
| 1777872720 | 13.33° C | 26% | 841.2 hPa | 0 mm | - | - | - |
| 1777871822 | 14.44° C | 26% | 841.2 hPa | 0 mm | - | - | - |
| 1777870919 | 15° C | 26% | 841.3 hPa | 0 mm | - | - | - |
| 1777870021 | 16.11° C | 25% | 841.3 hPa | 0 mm | - | - | - |
| 1777869118 | 17.22° C | 25% | 841.3 hPa | 0 mm | - | - | - |
| 1777868219 | 18.33° C | 25% | 841.3 hPa | 0 mm | - | - | - |
| 1777867317 | 18.89° C | 24% | 841.2 hPa | 0 mm | - | - | - |
| 1777866418 | 20° C | 25% | 841.2 hPa | 0 mm | - | - | - |
| 1777865516 | 21.11° C | 24% | 840.9 hPa | 0 mm | - | - | - |
| 1777864616 | 22.22° C | 23% | 840.7 hPa | 0 mm | - | - | - |
| 1777863715 | 23.33° C | 24% | 840.6 hPa | 0 mm | - | - | - |
| 1777861914 | 26.11° C | 24% | 840.3 hPa | 0 mm | - | - | - |
| 1777860113 | 27.78° C | 24% | 840.2 hPa | 0 mm | - | - | - |
| 1777859215 | 27.78° C | 24% | 840.3 hPa | 0 mm | - | - | - |
| 1777858312 | 28.33° C | 23% | 840.3 hPa | 0 mm | - | - | - |
| 1777857412 | 28.89° C | 22% | 840.4 hPa | 0 mm | - | - | - |
| 1777856515 | 30° C | 22% | 840.5 hPa | 0 mm | - | - | - |
* Rain since midnight (hover to see other rain measurements)
** Current wind speed in m/s (hover to see current wind gust speed)